Time;durP1;ratioP1;P1;durP2;ratioP2;P2;SDS_P1;SDS_P2;PMS_P1;PMS_P2;Temp;Humidity;BMP_temperature;BMP_pressure;BME280_temperature;BME280_humidity;BME280_pressure;Samples;Min_cycle;Max_cycle;Signal;HPM_P1;HPM_P2
2021/11/21 00:01:58;;;;;;;39.80;18.85;;;;;;;;;;6063308;29;20191;-65
2021/11/21 00:04:59;;;;;;;47.15;20.08;;;;;;;;;;6078212;29;20103;-65
2021/11/21 00:08:02;;;;;;;44.00;19.73;;;;;;;;;;6075851;29;20059;-65
2021/11/21 00:11:03;;;;;;;47.08;19.40;;;;;;;;;;6071520;29;20119;-65
2021/11/21 00:14:06;;;;;;;40.33;19.45;;;;;;;;;;6082354;29;20048;-65
2021/11/21 00:17:08;;;;;;;48.28;20.08;;;;;;;;;;6065671;29;20063;-65
2021/11/21 00:20:16;;;;;;;44.72;20.42;;;;;;;;;;6069801;29;20049;-66
2021/11/21 00:23:21;;;;;;;43.28;19.63;;;;;;;;;;6075405;29;20396;-64
2021/11/21 00:26:23;;;;;;;44.92;20.33;;;;;;;;;;6049446;29;20048;-65
2021/11/21 00:29:24;;;;;;;45.00;20.25;;;;;;;;;;6079839;29;20200;-65
2021/11/21 00:32:25;;;;;;;41.97;19.30;;;;;;;;;;6057592;29;20091;-65
2021/11/21 00:35:27;;;;;;;43.78;21.40;;;;;;;;;;6068761;29;20134;-66
2021/11/21 00:38:30;;;;;;;44.83;20.30;;;;;;;;;;6080266;29;20055;-66
2021/11/21 00:41:31;;;;;;;48.60;22.83;;;;;;;;;;6075321;29;20433;-65
2021/11/21 00:44:33;;;;;;;48.20;22.92;;;;;;;;;;6088692;29;20131;-65
2021/11/21 00:47:35;;;;;;;52.92;23.13;;;;;;;;;;6058012;29;20040;-65
2021/11/21 00:50:37;;;;;;;50.65;23.23;;;;;;;;;;6081765;29;20129;-65
2021/11/21 00:53:42;;;;;;;50.00;23.63;;;;;;;;;;6097295;29;20192;-65
2021/11/21 00:56:44;;;;;;;56.10;23.48;;;;;;;;;;6088835;29;20048;-66
2021/11/21 00:59:45;;;;;;;55.08;24.63;;;;;;;;;;6091836;29;20052;-65
2021/11/21 01:02:47;;;;;;;55.05;24.08;;;;;;;;;;6070168;29;20155;-65
2021/11/21 01:05:49;;;;;;;53.75;24.55;;;;;;;;;;6087035;29;20055;-66
2021/11/21 01:08:51;;;;;;;56.72;24.00;;;;;;;;;;6083633;29;20071;-66
2021/11/21 01:11:54;;;;;;;54.60;23.10;;;;;;;;;;6070179;29;20053;-65
2021/11/21 01:14:55;;;;;;;59.25;25.13;;;;;;;;;;6084727;29;20157;-65
2021/11/21 01:17:57;;;;;;;54.03;25.63;;;;;;;;;;6071310;29;20143;-65
2021/11/21 01:20:59;;;;;;;55.17;23.02;;;;;;;;;;6074727;29;20098;-65
2021/11/21 01:24:02;;;;;;;59.47;24.92;;;;;;;;;;6082738;29;20064;-65
2021/11/21 01:27:03;;;;;;;59.78;25.00;;;;;;;;;;6075341;29;20072;-65
2021/11/21 01:30:06;;;;;;;61.80;25.20;;;;;;;;;;6079478;29;20045;-66
2021/11/21 01:33:07;;;;;;;56.95;23.83;;;;;;;;;;6081710;29;20432;-65
2021/11/21 01:36:09;;;;;;;54.10;23.80;;;;;;;;;;6085654;29;20127;-65
2021/11/21 01:39:11;;;;;;;60.10;25.27;;;;;;;;;;6082320;29;20056;-65
2021/11/21 01:42:13;;;;;;;53.30;24.30;;;;;;;;;;6069932;29;20184;-65
2021/11/21 01:45:14;;;;;;;57.60;23.52;;;;;;;;;;6074035;29;20139;-66
2021/11/21 01:48:16;;;;;;;61.55;25.60;;;;;;;;;;6067919;29;20060;-65
2021/11/21 01:51:17;;;;;;;58.30;25.75;;;;;;;;;;6078534;29;20130;-65
2021/11/21 01:54:20;;;;;;;57.38;24.77;;;;;;;;;;6091020;29;20492;-65
2021/11/21 01:57:21;;;;;;;60.88;25.73;;;;;;;;;;6077746;29;20063;-65
2021/11/21 02:00:23;;;;;;;66.90;26.17;;;;;;;;;;6074337;29;20551;-66
2021/11/21 02:03:25;;;;;;;60.90;25.98;;;;;;;;;;6074665;29;20092;-65
2021/11/21 02:06:27;;;;;;;65.95;26.33;;;;;;;;;;6075916;29;21039;-65
2021/11/21 02:09:29;;;;;;;59.75;24.98;;;;;;;;;;6077615;29;20044;-64
2021/11/21 02:12:31;;;;;;;56.22;23.10;;;;;;;;;;6074412;29;20056;-67
2021/11/21 02:15:32;;;;;;;224.10;121.07;;;;;;;;;;6074269;29;20108;-68
2021/11/21 02:18:33;;;;;;;115.43;56.70;;;;;;;;;;6076435;29;20143;-71
2021/11/21 02:21:36;;;;;;;157.98;72.85;;;;;;;;;;6071641;29;20135;-69
2021/11/21 02:24:38;;;;;;;129.25;62.28;;;;;;;;;;6081271;29;21839;-65
2021/11/21 02:27:39;;;;;;;48.60;22.20;;;;;;;;;;6072924;29;20066;-64
2021/11/21 02:30:41;;;;;;;46.40;21.67;;;;;;;;;;6068761;29;20103;-65
2021/11/21 02:33:43;;;;;;;52.03;22.13;;;;;;;;;;6075478;29;20139;-65
2021/11/21 02:36:46;;;;;;;50.88;22.90;;;;;;;;;;6073862;29;20048;-65
2021/11/21 02:39:47;;;;;;;43.85;19.85;;;;;;;;;;6075121;29;20092;-66
2021/11/21 02:42:49;;;;;;;47.97;21.55;;;;;;;;;;6074169;29;20099;-64
2021/11/21 02:45:52;;;;;;;40.60;20.13;;;;;;;;;;6065911;29;20130;-65
2021/11/21 02:48:53;;;;;;;36.67;18.77;;;;;;;;;;6077964;29;20044;-65
2021/11/21 02:51:56;;;;;;;40.15;19.75;;;;;;;;;;6072430;29;21012;-64
2021/11/21 02:54:57;;;;;;;37.25;18.17;;;;;;;;;;6077113;29;20143;-66
2021/11/21 02:57:59;;;;;;;35.10;17.65;;;;;;;;;;6070347;29;20135;-66
2021/11/21 03:01:02;;;;;;;38.35;17.58;;;;;;;;;;6067481;29;20059;-66
2021/11/21 03:04:03;;;;;;;35.35;17.17;;;;;;;;;;6077153;29;20148;-65
2021/11/21 03:07:06;;;;;;;34.20;17.23;;;;;;;;;;6065243;29;20570;-64
2021/11/21 03:10:09;;;;;;;36.08;17.15;;;;;;;;;;6076566;29;20127;-66
2021/11/21 03:13:10;;;;;;;37.33;17.90;;;;;;;;;;6081456;29;20056;-65
2021/11/21 03:16:11;;;;;;;38.08;17.73;;;;;;;;;;6063011;29;20052;-65
2021/11/21 03:19:13;;;;;;;32.00;16.70;;;;;;;;;;6077864;29;20248;-65
2021/11/21 03:22:16;;;;;;;31.65;16.15;;;;;;;;;;6076896;29;20048;-65
2021/11/21 03:25:18;;;;;;;31.83;16.27;;;;;;;;;;6070943;29;20048;-65
2021/11/21 03:28:19;;;;;;;32.92;14.98;;;;;;;;;;6079539;29;20049;-65
2021/11/21 03:31:20;;;;;;;29.88;14.35;;;;;;;;;;6068812;29;20095;-65
2021/11/21 03:34:22;;;;;;;30.40;15.20;;;;;;;;;;6073019;29;20048;-65
2021/11/21 03:37:25;;;;;;;30.20;16.45;;;;;;;;;;6066796;29;20103;-66
2021/11/21 03:40:26;;;;;;;29.77;16.10;;;;;;;;;;6073334;29;20115;-66
2021/11/21 03:43:27;;;;;;;31.25;16.00;;;;;;;;;;6084799;29;20052;-64
2021/11/21 03:46:29;;;;;;;30.38;14.95;;;;;;;;;;6066907;29;20080;-65
2021/11/21 03:49:30;;;;;;;30.38;15.07;;;;;;;;;;6062403;29;20139;-65
2021/11/21 03:52:33;;;;;;;29.45;15.13;;;;;;;;;;6071192;29;20052;-65
2021/11/21 03:55:34;;;;;;;29.70;14.80;;;;;;;;;;6069785;29;20044;-65
2021/11/21 03:58:36;;;;;;;32.15;16.15;;;;;;;;;;6078289;29;20386;-65
2021/11/21 04:01:37;;;;;;;32.42;15.68;;;;;;;;;;6064008;29;20615;-65
2021/11/21 04:04:39;;;;;;;33.05;15.57;;;;;;;;;;6078062;29;20053;-65
2021/11/21 04:07:42;;;;;;;36.05;16.45;;;;;;;;;;6070599;29;20469;-65
2021/11/21 04:10:43;;;;;;;30.15;16.00;;;;;;;;;;6069611;29;20435;-65
2021/11/21 04:13:45;;;;;;;32.88;15.85;;;;;;;;;;6080191;29;20044;-65
2021/11/21 04:16:47;;;;;;;30.48;15.25;;;;;;;;;;6059864;29;20113;-65
2021/11/21 04:19:48;;;;;;;27.30;14.23;;;;;;;;;;6076469;29;20135;-65
2021/11/21 04:22:51;;;;;;;27.33;14.23;;;;;;;;;;6080143;29;20052;-65
2021/11/21 04:25:52;;;;;;;32.30;14.75;;;;;;;;;;6067728;29;20056;-65
2021/11/21 04:28:54;;;;;;;29.45;15.07;;;;;;;;;;6085866;29;20139;-65
2021/11/21 04:31:55;;;;;;;29.85;15.70;;;;;;;;;;6074342;29;20059;-65
2021/11/21 04:34:57;;;;;;;32.28;16.63;;;;;;;;;;6088583;29;20072;-66
2021/11/21 04:38:00;;;;;;;32.60;16.27;;;;;;;;;;6079193;29;20056;-65
2021/11/21 04:41:02;;;;;;;36.38;15.98;;;;;;;;;;6070705;29;20516;-65
2021/11/21 04:44:03;;;;;;;35.00;16.63;;;;;;;;;;6085404;29;20254;-65
2021/11/21 04:47:05;;;;;;;31.38;15.75;;;;;;;;;;6066915;29;20528;-66
2021/11/21 04:50:07;;;;;;;33.10;15.50;;;;;;;;;;6080612;29;20048;-66
2021/11/21 04:53:10;;;;;;;31.55;15.63;;;;;;;;;;6083716;29;20131;-65
2021/11/21 04:56:11;;;;;;;27.83;14.73;;;;;;;;;;6086415;29;20044;-65
2021/11/21 04:59:13;;;;;;;29.77;15.02;;;;;;;;;;6092945;29;20139;-64
2021/11/21 05:02:15;;;;;;;31.42;15.77;;;;;;;;;;6076441;29;20071;-66
2021/11/21 05:05:19;;;;;;;27.98;14.52;;;;;;;;;;6093420;29;20625;-66
2021/11/21 05:08:21;;;;;;;30.98;14.98;;;;;;;;;;6083624;29;20539;-65
2021/11/21 05:11:23;;;;;;;30.70;14.85;;;;;;;;;;6072625;29;20547;-64
2021/11/21 05:14:24;;;;;;;31.55;15.18;;;;;;;;;;6080728;29;20506;-65
2021/11/21 05:17:26;;;;;;;31.83;15.55;;;;;;;;;;6066817;29;20191;-65
2021/11/21 05:20:27;;;;;;;37.45;17.02;;;;;;;;;;6076249;29;20102;-65
2021/11/21 05:23:30;;;;;;;34.47;16.33;;;;;;;;;;6080704;29;20096;-65
2021/11/21 05:26:31;;;;;;;30.67;15.90;;;;;;;;;;6075620;29;20052;-65
2021/11/21 05:29:33;;;;;;;29.65;15.95;;;;;;;;;;6082755;29;20055;-66
2021/11/21 05:32:34;;;;;;;32.47;15.35;;;;;;;;;;6072739;29;20052;-64
2021/11/21 05:35:36;;;;;;;29.13;14.98;;;;;;;;;;6087634;29;20212;-65
2021/11/21 05:38:38;;;;;;;31.88;15.85;;;;;;;;;;6084094;29;20063;-66
2021/11/21 05:41:40;;;;;;;32.80;16.55;;;;;;;;;;6069209;29;22287;-66
2021/11/21 05:44:41;;;;;;;31.08;15.75;;;;;;;;;;6086075;29;20049;-65
2021/11/21 05:47:42;;;;;;;33.70;16.65;;;;;;;;;;6073138;29;20147;-65
2021/11/21 05:50:44;;;;;;;32.20;16.70;;;;;;;;;;6074293;29;20091;-65
2021/11/21 05:53:47;;;;;;;35.72;17.42;;;;;;;;;;6088376;29;20044;-65
2021/11/21 05:56:48;;;;;;;32.55;16.50;;;;;;;;;;6081693;29;20064;-65
2021/11/21 05:59:49;;;;;;;30.77;15.38;;;;;;;;;;6079161;29;20050;-65
2021/11/21 06:02:51;;;;;;;29.48;15.15;;;;;;;;;;6067635;29;20056;-66
2021/11/21 06:05:52;;;;;;;32.30;15.65;;;;;;;;;;6078719;29;20483;-65
2021/11/21 06:08:55;;;;;;;30.30;16.38;;;;;;;;;;6076439;29;21024;-65
2021/11/21 06:11:56;;;;;;;31.15;16.42;;;;;;;;;;6074860;29;20139;-66
2021/11/21 06:14:58;;;;;;;32.50;17.15;;;;;;;;;;6084358;29;20044;-65
2021/11/21 06:17:59;;;;;;;30.08;15.82;;;;;;;;;;6063988;29;20056;-66
2021/11/21 06:21:01;;;;;;;35.47;16.70;;;;;;;;;;6068211;29;20104;-65
2021/11/21 06:24:04;;;;;;;33.05;16.52;;;;;;;;;;6085440;29;20075;-65
2021/11/21 06:27:05;;;;;;;35.72;16.67;;;;;;;;;;6078627;29;20054;-65
2021/11/21 06:30:07;;;;;;;32.15;16.60;;;;;;;;;;6078497;29;20053;-66
2021/11/21 06:33:09;;;;;;;34.95;16.95;;;;;;;;;;6078587;29;20489;-65
2021/11/21 06:36:10;;;;;;;34.50;17.17;;;;;;;;;;6077202;29;20374;-65
2021/11/21 06:39:13;;;;;;;31.77;16.08;;;;;;;;;;6082568;29;20135;-66
2021/11/21 06:42:14;;;;;;;33.15;17.17;;;;;;;;;;6089322;29;20579;-65
2021/11/21 06:45:16;;;;;;;37.03;17.63;;;;;;;;;;6085319;29;20156;-66
2021/11/21 06:48:20;;;;;;;36.28;18.15;;;;;;;;;;6077223;29;20396;-66
2021/11/21 06:51:22;;;;;;;36.10;17.83;;;;;;;;;;6068231;29;20041;-65
2021/11/21 06:54:24;;;;;;;36.55;17.60;;;;;;;;;;6079501;29;20181;-65
2021/11/21 06:57:26;;;;;;;29.60;16.10;;;;;;;;;;6073873;29;20048;-66
2021/11/21 07:00:27;;;;;;;36.38;18.42;;;;;;;;;;6075835;29;21197;-65
2021/11/21 07:03:28;;;;;;;36.50;17.67;;;;;;;;;;6077497;29;20048;-66
2021/11/21 07:06:31;;;;;;;40.92;17.98;;;;;;;;;;6084480;29;20403;-66
2021/11/21 07:09:34;;;;;;;35.78;17.42;;;;;;;;;;6079961;29;20583;-65
2021/11/21 07:12:35;;;;;;;40.25;17.90;;;;;;;;;;6078286;29;20099;-65
2021/11/21 07:15:37;;;;;;;37.03;19.00;;;;;;;;;;6074146;29;20084;-66
2021/11/21 07:18:38;;;;;;;37.80;19.25;;;;;;;;;;6078874;29;20036;-64
2021/11/21 07:21:39;;;;;;;36.40;18.48;;;;;;;;;;6079452;29;20044;-64
2021/11/21 07:24:42;;;;;;;38.50;18.75;;;;;;;;;;6090971;29;20072;-64
2021/11/21 07:27:44;;;;;;;39.28;18.45;;;;;;;;;;6080622;29;20196;-65
2021/11/21 07:30:45;;;;;;;42.95;19.80;;;;;;;;;;6066930;29;20060;-65
2021/11/21 07:33:47;;;;;;;39.17;18.17;;;;;;;;;;6079574;29;20052;-64
2021/11/21 07:36:48;;;;;;;36.30;18.10;;;;;;;;;;6073814;29;20052;-65
2021/11/21 07:39:51;;;;;;;41.40;19.25;;;;;;;;;;6083544;29;20040;-64
2021/11/21 07:42:52;;;;;;;35.20;18.40;;;;;;;;;;6074554;29;20097;-64
2021/11/21 07:45:54;;;;;;;40.88;18.58;;;;;;;;;;6070239;29;20056;-64
2021/11/21 07:48:56;;;;;;;40.40;18.88;;;;;;;;;;6074325;29;20060;-64
2021/11/21 07:51:57;;;;;;;41.42;19.83;;;;;;;;;;6074040;29;20044;-64
2021/11/21 07:55:00;;;;;;;42.53;19.35;;;;;;;;;;6085215;29;20052;-64
2021/11/21 07:58:01;;;;;;;41.35;19.73;;;;;;;;;;6073385;29;20127;-64
2021/11/21 08:01:03;;;;;;;39.20;19.17;;;;;;;;;;6069744;29;20060;-65
2021/11/21 08:04:04;;;;;;;43.75;19.60;;;;;;;;;;6083679;29;20040;-64
2021/11/21 08:07:08;;;;;;;41.67;19.52;;;;;;;;;;6078315;29;20044;-65
2021/11/21 08:10:11;;;;;;;42.10;20.70;;;;;;;;;;6080209;29;20540;-65
2021/11/21 08:13:12;;;;;;;44.40;20.25;;;;;;;;;;6084810;29;20078;-64
2021/11/21 08:16:13;;;;;;;41.38;18.50;;;;;;;;;;6072375;29;20174;-64
2021/11/21 08:19:15;;;;;;;41.90;19.35;;;;;;;;;;6084672;29;20056;-65
2021/11/21 08:22:16;;;;;;;43.00;20.63;;;;;;;;;;6074569;29;20594;-65
2021/11/21 08:25:19;;;;;;;39.25;19.77;;;;;;;;;;6083129;29;20044;-65
2021/11/21 08:28:21;;;;;;;37.35;19.13;;;;;;;;;;6089153;29;20095;-65
2021/11/21 08:31:22;;;;;;;37.13;18.95;;;;;;;;;;6072305;29;20052;-66
2021/11/21 08:34:24;;;;;;;35.15;19.25;;;;;;;;;;6091638;29;20051;-65
2021/11/21 08:37:25;;;;;;;37.83;18.65;;;;;;;;;;6080374;29;20152;-65
2021/11/21 08:40:29;;;;;;;32.03;17.73;;;;;;;;;;6086072;29;20127;-65
2021/11/21 08:43:30;;;;;;;33.13;17.77;;;;;;;;;;6088688;29;21332;-65
2021/11/21 08:46:31;;;;;;;34.50;17.92;;;;;;;;;;6073224;29;20095;-65
2021/11/21 08:49:34;;;;;;;38.15;19.48;;;;;;;;;;6088202;29;20131;-65
2021/11/21 08:52:35;;;;;;;37.75;19.20;;;;;;;;;;6074921;29;20044;-64
2021/11/21 08:55:38;;;;;;;38.88;18.38;;;;;;;;;;6078801;29;20048;-66
2021/11/21 08:58:40;;;;;;;39.67;20.17;;;;;;;;;;6091564;29;20040;-66
2021/11/21 09:01:42;;;;;;;40.90;20.40;;;;;;;;;;6081299;29;20048;-66
2021/11/21 09:04:43;;;;;;;46.50;21.70;;;;;;;;;;6087585;29;20407;-66
2021/11/21 09:07:45;;;;;;;52.38;23.15;;;;;;;;;;6079773;29;20192;-66
2021/11/21 09:10:48;;;;;;;48.53;22.80;;;;;;;;;;6073265;29;20185;-65
2021/11/21 09:13:50;;;;;;;49.83;22.50;;;;;;;;;;6090792;29;20147;-65
2021/11/21 09:16:51;;;;;;;46.33;22.80;;;;;;;;;;6066757;29;20191;-66
2021/11/21 09:19:52;;;;;;;54.72;23.27;;;;;;;;;;6086030;29;21801;-65
2021/11/21 09:22:54;;;;;;;51.33;22.35;;;;;;;;;;6079399;29;20056;-67
2021/11/21 09:25:57;;;;;;;51.97;23.65;;;;;;;;;;6077681;29;20044;-66
2021/11/21 09:28:59;;;;;;;52.03;23.38;;;;;;;;;;6087494;29;20134;-66
2021/11/21 09:32:00;;;;;;;50.40;23.60;;;;;;;;;;6080738;29;20055;-66
2021/11/21 09:35:01;;;;;;;49.58;22.95;;;;;;;;;;6087864;29;20139;-66
2021/11/21 09:38:03;;;;;;;47.05;22.13;;;;;;;;;;6083868;29;20131;-66
2021/11/21 09:41:06;;;;;;;46.17;21.83;;;;;;;;;;6081170;29;20135;-65
2021/11/21 09:44:07;;;;;;;47.17;22.20;;;;;;;;;;6092885;29;20187;-65
2021/11/21 09:47:09;;;;;;;48.22;23.65;;;;;;;;;;6075735;29;20103;-66
2021/11/21 09:50:11;;;;;;;44.67;22.27;;;;;;;;;;6073487;29;20049;-66
2021/11/21 09:53:14;;;;;;;46.92;22.50;;;;;;;;;;6076231;29;20113;-65
2021/11/21 09:56:17;;;;;;;41.05;21.02;;;;;;;;;;6072400;29;20047;-65
2021/11/21 09:59:33;;;;;;;45.08;23.20;;;;;;;;;;6081916;29;20044;-66
2021/11/21 10:02:36;;;;;;;44.28;23.08;;;;;;;;;;6071534;29;20045;-66
2021/11/21 10:05:39;;;;;;;51.08;23.55;;;;;;;;;;6074927;29;20063;-65
2021/11/21 10:08:49;;;;;;;50.70;24.55;;;;;;;;;;6098313;29;20517;-65
2021/11/21 10:12:00;;;;;;;51.28;24.27;;;;;;;;;;6079808;29;20188;-65
2021/11/21 10:15:03;;;;;;;51.47;25.40;;;;;;;;;;6083494;29;20457;-65
2021/11/21 10:18:04;;;;;;;54.92;25.85;;;;;;;;;;6068329;29;20092;-64
2021/11/21 10:21:09;;;;;;;50.28;24.98;;;;;;;;;;6071412;29;20043;-65
2021/11/21 10:24:11;;;;;;;50.85;25.05;;;;;;;;;;6081017;29;20548;-66
2021/11/21 10:27:16;;;;;;;48.10;24.27;;;;;;;;;;6076167;29;20051;-65
2021/11/21 10:30:17;;;;;;;45.08;23.55;;;;;;;;;;6072807;29;20365;-66
2021/11/21 10:33:22;;;;;;;50.78;26.33;;;;;;;;;;6075302;29;20512;-66
2021/11/21 10:36:25;;;;;;;52.83;26.52;;;;;;;;;;6079188;29;20145;-65
2021/11/21 10:39:27;;;;;;;51.97;25.48;;;;;;;;;;6085005;29;20080;-65
2021/11/21 10:42:30;;;;;;;47.90;25.33;;;;;;;;;;6072447;29;20142;-64
2021/11/21 10:45:31;;;;;;;51.17;25.50;;;;;;;;;;6067244;29;20115;-66
2021/11/21 10:48:32;;;;;;;49.83;26.02;;;;;;;;;;6092119;29;20563;-65
2021/11/21 10:51:34;;;;;;;50.05;26.48;;;;;;;;;;6074508;29;20105;-66
2021/11/21 10:54:37;;;;;;;49.25;26.50;;;;;;;;;;6079589;29;20166;-65
2021/11/21 10:57:39;;;;;;;50.13;26.25;;;;;;;;;;6070602;29;20066;-65
2021/11/21 11:00:41;;;;;;;48.50;25.77;;;;;;;;;;6073049;29;20067;-66
2021/11/21 11:03:42;;;;;;;48.45;26.45;;;;;;;;;;6077081;29;20127;-66
2021/11/21 11:06:44;;;;;;;51.13;27.92;;;;;;;;;;6073677;29;20050;-66
2021/11/21 11:09:45;;;;;;;53.25;28.30;;;;;;;;;;6086758;29;20135;-65
2021/11/21 11:12:49;;;;;;;53.00;27.05;;;;;;;;;;6077517;29;20477;-66
2021/11/21 11:15:50;;;;;;;53.25;28.10;;;;;;;;;;6072503;29;20467;-66
2021/11/21 11:18:52;;;;;;;49.47;27.13;;;;;;;;;;6081534;29;20043;-66
2021/11/21 11:21:53;;;;;;;48.67;27.00;;;;;;;;;;6067696;29;20182;-66
2021/11/21 11:24:55;;;;;;;51.55;28.08;;;;;;;;;;6086133;29;20140;-65
2021/11/21 11:28:02;;;;;;;52.95;27.65;;;;;;;;;;6072906;29;20233;-65
2021/11/21 11:31:18;;;;;;;55.33;28.15;;;;;;;;;;6081618;29;20175;-66
2021/11/21 11:34:36;;;;;;;51.22;28.25;;;;;;;;;;6082926;29;20058;-65
2021/11/21 11:37:39;;;;;;;51.78;28.98;;;;;;;;;;6079038;29;20055;-65
2021/11/21 11:40:45;;;;;;;54.28;28.40;;;;;;;;;;6072675;29;20053;-65
2021/11/21 11:43:54;;;;;;;53.30;26.80;;;;;;;;;;6084633;29;20055;-65
2021/11/21 11:46:56;;;;;;;53.17;28.30;;;;;;;;;;6066210;29;20056;-66
2021/11/21 11:49:57;;;;;;;53.17;28.20;;;;;;;;;;6082015;29;20052;-66
2021/11/21 11:53:00;;;;;;;51.17;26.70;;;;;;;;;;6071468;29;20687;-66
2021/11/21 11:56:16;;;;;;;56.43;28.87;;;;;;;;;;6070758;29;20420;-65
2021/11/21 11:59:25;;;;;;;50.15;28.48;;;;;;;;;;6084070;29;20124;-65
2021/11/21 12:02:32;;;;;;;52.55;28.33;;;;;;;;;;6043236;29;20559;-65
2021/11/21 12:05:34;;;;;;;54.50;29.13;;;;;;;;;;6070595;29;20524;-66
2021/11/21 12:08:36;;;;;;;55.40;29.45;;;;;;;;;;6077143;29;20048;-65
2021/11/21 12:11:52;;;;;;;54.00;27.88;;;;;;;;;;6073784;29;20078;-65
2021/11/21 12:14:55;;;;;;;52.28;28.15;;;;;;;;;;6075649;29;20048;-65
2021/11/21 12:17:56;;;;;;;54.70;29.63;;;;;;;;;;6063487;29;20127;-66
2021/11/21 12:20:58;;;;;;;53.85;29.13;;;;;;;;;;6078631;29;20048;-65
2021/11/21 12:24:00;;;;;;;49.45;28.30;;;;;;;;;;6081381;29;20559;-65
2021/11/21 12:27:18;;;;;;;51.72;28.65;;;;;;;;;;6078095;29;20048;-67
2021/11/21 12:30:22;;;;;;;53.70;28.23;;;;;;;;;;6083018;29;20051;-65
2021/11/21 12:33:27;;;;;;;56.35;26.70;;;;;;;;;;6084033;29;20048;-65
2021/11/21 12:37:03;;;;;;;55.03;23.95;;;;;;;;;;6088569;29;20063;-65
2021/11/21 12:40:15;;;;;;;55.10;24.73;;;;;;;;;;6093705;29;20060;-65
2021/11/21 12:43:18;;;;;;;51.28;23.58;;;;;;;;;;6089465;29;20075;-64
2021/11/21 12:46:21;;;;;;;52.10;23.95;;;;;;;;;;6069158;29;20459;-65
2021/11/21 12:49:24;;;;;;;48.20;24.40;;;;;;;;;;6093553;29;20078;-65
2021/11/21 12:52:25;;;;;;;51.42;23.48;;;;;;;;;;6086057;29;20149;-65
2021/11/21 12:55:27;;;;;;;53.78;24.77;;;;;;;;;;6074634;29;20471;-65
2021/11/21 12:58:29;;;;;;;48.78;24.00;;;;;;;;;;6098165;29;20048;-65
2021/11/21 13:01:34;;;;;;;50.92;24.10;;;;;;;;;;6090017;29;20176;-65
2021/11/21 13:04:46;;;;;;;48.97;23.70;;;;;;;;;;6100636;29;20062;-65
2021/11/21 13:07:47;;;;;;;51.15;23.90;;;;;;;;;;6091947;29;20127;-65
2021/11/21 13:10:50;;;;;;;51.50;23.33;;;;;;;;;;6091441;29;20044;-65
2021/11/21 13:13:53;;;;;;;53.85;25.00;;;;;;;;;;6089964;29;20044;-65
2021/11/21 13:16:55;;;;;;;54.05;23.67;;;;;;;;;;6078883;29;20180;-65
2021/11/21 13:20:21;;;;;;;52.83;24.42;;;;;;;;;;6096169;29;20084;-66
2021/11/21 13:23:24;;;;;;;50.97;22.75;;;;;;;;;;6086978;29;20095;-65
2021/11/21 13:26:25;;;;;;;54.78;24.75;;;;;;;;;;6090935;29;20132;-65
2021/11/21 13:29:27;;;;;;;52.47;24.13;;;;;;;;;;6100558;29;20127;-64
2021/11/21 13:32:30;;;;;;;55.95;24.15;;;;;;;;;;6082782;29;20389;-65
2021/11/21 13:35:32;;;;;;;52.67;23.08;;;;;;;;;;6087572;29;20395;-65
2021/11/21 13:38:33;;;;;;;51.33;24.83;;;;;;;;;;6101670;29;20135;-65
2021/11/21 13:41:35;;;;;;;51.25;23.08;;;;;;;;;;6089509;29;20060;-65
2021/11/21 13:44:38;;;;;;;53.72;24.60;;;;;;;;;;6092680;29;20155;-65
2021/11/21 13:47:41;;;;;;;53.33;23.92;;;;;;;;;;6073070;29;20416;-64
2021/11/21 13:50:44;;;;;;;55.05;24.15;;;;;;;;;;6077073;29;20195;-65
2021/11/21 13:53:47;;;;;;;55.90;24.58;;;;;;;;;;6085000;29;20138;-64
2021/11/21 13:56:48;;;;;;;54.10;23.58;;;;;;;;;;6071396;29;20044;-65
2021/11/21 13:59:51;;;;;;;50.08;21.80;;;;;;;;;;6082712;29;21508;-65
2021/11/21 14:02:58;;;;;;;50.83;22.85;;;;;;;;;;6060009;29;20060;-65
2021/11/21 14:06:05;;;;;;;53.15;22.52;;;;;;;;;;6070953;29;20353;-65
2021/11/21 14:09:08;;;;;;;46.30;23.15;;;;;;;;;;6084820;29;20143;-65
2021/11/21 14:12:09;;;;;;;47.78;20.83;;;;;;;;;;6076798;29;20055;-67
2021/11/21 14:15:12;;;;;;;42.75;19.88;;;;;;;;;;6081751;29;20620;-66
2021/11/21 14:18:16;;;;;;;44.38;20.00;;;;;;;;;;6073512;29;20055;-66
2021/11/21 14:21:18;;;;;;;42.13;18.98;;;;;;;;;;6077823;29;20078;-66
2021/11/21 14:24:20;;;;;;;41.75;19.45;;;;;;;;;;6079906;29;20051;-66
2021/11/21 14:27:25;;;;;;;38.50;18.83;;;;;;;;;;6076988;29;20056;-65
2021/11/21 14:30:26;;;;;;;36.70;17.15;;;;;;;;;;6050819;29;20044;-65
2021/11/21 14:33:30;;;;;;;35.03;17.45;;;;;;;;;;6074113;29;20419;-66
2021/11/21 14:36:35;;;;;;;39.00;18.65;;;;;;;;;;6075654;29;20138;-66
2021/11/21 14:39:37;;;;;;;35.08;16.60;;;;;;;;;;6085972;29;20048;-66
2021/11/21 14:42:38;;;;;;;34.53;17.00;;;;;;;;;;6076270;29;20066;-65
2021/11/21 14:45:40;;;;;;;35.70;16.55;;;;;;;;;;6070661;29;20048;-65
2021/11/21 14:48:44;;;;;;;34.60;16.67;;;;;;;;;;6078163;29;20172;-66
2021/11/21 14:51:46;;;;;;;40.85;18.00;;;;;;;;;;6069095;29;20044;-65
2021/11/21 14:54:50;;;;;;;34.55;16.50;;;;;;;;;;6078840;29;20068;-64
2021/11/21 14:57:57;;;;;;;28.38;15.00;;;;;;;;;;6070382;29;20705;-65
2021/11/21 15:00:59;;;;;;;80.15;40.60;;;;;;;;;;6070657;29;20473;-66
2021/11/21 15:04:03;;;;;;;94.40;49.25;;;;;;;;;;6080653;29;20193;-67
2021/11/21 15:07:05;;;;;;;35.70;17.20;;;;;;;;;;6070273;29;20052;-66
2021/11/21 15:10:07;;;;;;;29.77;15.85;;;;;;;;;;6079045;29;20238;-67
2021/11/21 15:13:08;;;;;;;30.95;15.32;;;;;;;;;;6074473;29;20056;-66
2021/11/21 15:16:10;;;;;;;35.53;16.90;;;;;;;;;;6062115;29;20137;-66
2021/11/21 15:19:13;;;;;;;33.15;16.33;;;;;;;;;;6077722;29;20063;-67
2021/11/21 15:22:14;;;;;;;38.70;16.83;;;;;;;;;;6069935;29;20372;-68
2021/11/21 15:25:16;;;;;;;35.75;16.63;;;;;;;;;;6073047;29;21341;-68
2021/11/21 15:28:17;;;;;;;37.20;18.25;;;;;;;;;;6081782;29;20547;-67
2021/11/21 15:31:19;;;;;;;36.85;18.42;;;;;;;;;;6068097;29;20051;-67
2021/11/21 15:34:21;;;;;;;32.78;16.55;;;;;;;;;;6077637;29;20084;-66
2021/11/21 15:37:24;;;;;;;32.03;16.23;;;;;;;;;;6069984;29;20094;-67
2021/11/21 15:40:26;;;;;;;26.67;14.43;;;;;;;;;;6072548;29;20198;-67
2021/11/21 15:43:28;;;;;;;26.85;15.73;;;;;;;;;;6080725;29;20058;-67
2021/11/21 15:46:29;;;;;;;26.92;13.98;;;;;;;;;;6066029;29;20174;-64
2021/11/21 15:49:32;;;;;;;24.88;13.93;;;;;;;;;;6077804;29;20154;-66
2021/11/21 15:52:33;;;;;;;24.30;13.73;;;;;;;;;;6065986;29;20835;-66
2021/11/21 15:55:35;;;;;;;27.50;14.45;;;;;;;;;;6067667;29;20505;-66
2021/11/21 15:58:36;;;;;;;29.50;15.45;;;;;;;;;;6081352;29;20056;-69
2021/11/21 16:01:38;;;;;;;28.23;15.90;;;;;;;;;;6065383;29;20045;-66
2021/11/21 16:04:41;;;;;;;27.85;15.80;;;;;;;;;;6077432;29;20060;-67
2021/11/21 16:07:42;;;;;;;29.90;14.77;;;;;;;;;;6071854;29;20499;-67
2021/11/21 16:10:45;;;;;;;29.95;15.73;;;;;;;;;;6069792;29;20196;-67
2021/11/21 16:13:46;;;;;;;27.92;15.45;;;;;;;;;;6083680;29;20213;-67
2021/11/21 16:16:48;;;;;;;34.17;15.60;;;;;;;;;;6064981;29;20139;-67
2021/11/21 16:19:51;;;;;;;28.40;16.98;;;;;;;;;;6076229;29;20059;-65
2021/11/21 16:22:52;;;;;;;27.20;14.82;;;;;;;;;;6075011;29;20496;-66
2021/11/21 16:25:54;;;;;;;28.42;16.60;;;;;;;;;;6070498;29;20219;-67
2021/11/21 16:28:56;;;;;;;29.63;16.60;;;;;;;;;;6088006;29;20060;-66
2021/11/21 16:31:58;;;;;;;31.27;17.67;;;;;;;;;;6070461;29;20135;-66
2021/11/21 16:35:01;;;;;;;37.38;23.50;;;;;;;;;;6084314;29;20115;-66
2021/11/21 16:38:02;;;;;;;34.00;21.88;;;;;;;;;;6079464;29;20516;-66
2021/11/21 16:41:04;;;;;;;34.95;24.27;;;;;;;;;;6074641;29;20501;-67
2021/11/21 16:44:10;;;;;;;30.85;19.42;;;;;;;;;;6079907;29;20374;-66
2021/11/21 16:47:12;;;;;;;30.98;15.88;;;;;;;;;;6068694;29;20088;-67
2021/11/21 16:50:15;;;;;;;26.13;15.25;;;;;;;;;;6078147;29;20188;-67
2021/11/21 16:53:17;;;;;;;28.20;16.23;;;;;;;;;;6087926;29;20064;-67
2021/11/21 16:56:20;;;;;;;31.20;16.75;;;;;;;;;;6087420;29;20832;-65
2021/11/21 16:59:21;;;;;;;31.30;17.07;;;;;;;;;;6087124;29;20232;-65
2021/11/21 17:02:23;;;;;;;32.33;16.88;;;;;;;;;;6071211;29;20079;-67
2021/11/21 17:05:25;;;;;;;34.63;16.98;;;;;;;;;;6074183;29;20044;-67
2021/11/21 17:08:28;;;;;;;36.42;18.08;;;;;;;;;;6084828;29;20053;-67
2021/11/21 17:11:30;;;;;;;36.17;18.77;;;;;;;;;;6073094;29;20052;-66
2021/11/21 17:14:31;;;;;;;34.20;17.85;;;;;;;;;;6082157;29;20056;-65
2021/11/21 17:17:34;;;;;;;38.88;19.00;;;;;;;;;;6070784;29;20046;-66
2021/11/21 17:20:36;;;;;;;34.90;17.73;;;;;;;;;;6076481;29;20345;-66
2021/11/21 17:23:38;;;;;;;41.05;19.00;;;;;;;;;;6082771;29;20056;-66
2021/11/21 17:26:39;;;;;;;35.92;19.73;;;;;;;;;;6076023;29;20052;-67
2021/11/21 17:29:40;;;;;;;37.30;18.33;;;;;;;;;;6078394;29;20103;-66
2021/11/21 17:32:45;;;;;;;33.80;18.92;;;;;;;;;;6068245;29;20048;-66
2021/11/21 17:35:48;;;;;;;40.75;20.55;;;;;;;;;;6078946;29;20055;-66
2021/11/21 17:38:49;;;;;;;40.08;20.92;;;;;;;;;;6085064;29;20060;-65
2021/11/21 17:41:53;;;;;;;38.42;19.60;;;;;;;;;;6073423;29;20045;-66